Time;durP1;ratioP1;P1;durP2;ratioP2;P2;SDS_P1;SDS_P2;PMS_P1;PMS_P2;Temp;Humidity;BMP_temperature;BMP_pressure;BME280_temperature;BME280_humidity;BME280_pressure;Samples;Min_cycle;Max_cycle;Signal;HPM_P1;HPM_P2
2022/04/25 00:01:29;;;;;;;4.13;2.50;;;;;;;17.77;53.91;99095.38;4973362;29;20027;-92
2022/04/25 00:03:55;;;;;;;4.32;2.30;;;;;;;17.75;53.83;99089.31;4970701;29;20031;-92
2022/04/25 00:06:20;;;;;;;3.60;2.33;;;;;;;17.75;54.11;99094.59;4969722;29;20465;-92
2022/04/25 00:08:46;;;;;;;3.70;2.13;;;;;;;17.76;54.06;99096.28;4970941;29;20070;-92
2022/04/25 00:11:12;;;;;;;4.13;2.50;;;;;;;17.73;53.91;99093.81;4972168;29;20020;-92
2022/04/25 00:13:37;;;;;;;3.80;2.55;;;;;;;17.74;54.15;99090.25;4972498;29;20034;-92
2022/04/25 00:16:04;;;;;;;5.28;2.70;;;;;;;17.71;53.79;99089.47;4972778;29;20420;-92
2022/04/25 00:18:29;;;;;;;4.40;2.45;;;;;;;17.71;53.81;99092.13;4972988;29;20063;-93
2022/04/25 00:20:55;;;;;;;3.85;2.50;;;;;;;17.71;54.27;99083.34;4971954;29;20035;-92
2022/04/25 00:23:22;;;;;;;3.78;2.17;;;;;;;17.69;54.05;99086.06;4970320;29;20027;-92
2022/04/25 00:25:48;;;;;;;3.17;2.10;;;;;;;17.67;53.96;99080.03;4972674;28;20031;-92
2022/04/25 00:28:13;;;;;;;3.38;2.30;;;;;;;17.66;54.06;99075.69;4974098;29;20423;-92
2022/04/25 00:30:39;;;;;;;3.25;2.28;;;;;;;17.67;53.92;99081.81;4973462;29;20090;-92
2022/04/25 00:33:04;;;;;;;3.40;2.20;;;;;;;17.65;54.18;99081.03;4973681;29;20354;-91
2022/04/25 00:35:30;;;;;;;4.10;2.42;;;;;;;17.62;53.82;99082.03;4972596;29;20066;-93
2022/04/25 00:37:55;;;;;;;3.35;2.20;;;;;;;17.65;54.02;99081.91;4972199;29;20027;-92
2022/04/25 00:40:23;;;;;;;3.15;1.98;;;;;;;17.64;54.11;99082.84;4972509;29;20115;-91
2022/04/25 00:42:49;;;;;;;3.80;2.00;;;;;;;17.64;53.80;99085.47;4973168;29;20027;-92
2022/04/25 00:45:15;;;;;;;3.13;2.05;;;;;;;17.63;53.96;99082.91;4972742;29;20083;-91
2022/04/25 00:47:42;;;;;;;3.55;2.15;;;;;;;17.62;54.17;99081.22;4971729;29;20023;-92
2022/04/25 00:50:09;;;;;;;3.30;2.20;;;;;;;17.62;53.77;99076.78;4972048;29;20460;-91
2022/04/25 00:52:36;;;;;;;3.30;2.28;;;;;;;17.61;54.08;99082.13;4972357;29;20031;-91
2022/04/25 00:55:04;;;;;;;4.72;2.40;;;;;;;17.59;54.06;99087.50;4972104;29;20038;-90
2022/04/25 00:57:31;;;;;;;3.40;2.10;;;;;;;17.60;54.08;99089.19;4972538;29;20389;-91
2022/04/25 00:59:58;;;;;;;3.35;2.35;;;;;;;17.59;53.94;99087.50;4972328;29;20031;-92
2022/04/25 01:02:27;;;;;;;3.80;2.30;;;;;;;17.57;53.87;99084.06;4972270;29;20487;-93
2022/04/25 01:04:56;;;;;;;4.47;2.33;;;;;;;17.58;53.96;99080.53;4971276;29;20050;-92
2022/04/25 01:07:22;;;;;;;4.28;2.45;;;;;;;17.57;53.88;99077.03;4970958;29;20046;-91
2022/04/25 01:09:48;;;;;;;3.50;2.10;;;;;;;17.59;54.32;99082.22;4972443;29;20031;-92
2022/04/25 01:12:13;;;;;;;3.50;2.13;;;;;;;17.57;54.03;99073.50;4955664;29;20460;-92
2022/04/25 01:14:39;;;;;;;3.70;2.20;;;;;;;17.56;53.85;99077.97;4971201;29;20039;-91
2022/04/25 01:17:05;;;;;;;2.83;2.05;;;;;;;17.56;53.83;99071.81;4971813;29;20338;-91
2022/04/25 01:19:32;;;;;;;3.83;2.38;;;;;;;17.55;54.08;99076.25;4972394;29;20103;-92
2022/04/25 01:22:10;;;;;;;4.00;2.30;;;;;;;17.53;54.23;99075.47;4972805;29;20122;-92
2022/04/25 01:27:20;;;;;;;3.55;2.50;;;;;;;17.51;54.03;99073.84;4972703;29;20365;-92
2022/04/25 01:29:52;;;;;;;3.70;2.35;;;;;;;17.53;54.10;99066.72;4970657;29;20027;-92
2022/04/25 01:32:20;;;;;;;2.95;2.10;;;;;;;17.53;54.08;99066.72;4970389;29;20035;-92
2022/04/25 01:34:46;;;;;;;3.65;2.13;;;;;;;17.50;54.04;99064.22;4970074;29;20027;-92
2022/04/25 01:37:16;;;;;;;3.00;2.00;;;;;;;17.51;54.21;99063.28;4969332;28;20043;-92
2022/04/25 01:39:47;;;;;;;3.25;2.05;;;;;;;17.50;54.00;99056.31;4971082;29;20035;-93
2022/04/25 01:42:13;;;;;;;3.83;2.40;;;;;;;17.49;53.92;99055.47;4970594;29;20038;-92
2022/04/25 01:44:39;;;;;;;3.38;2.17;;;;;;;17.49;54.09;99051.97;4970308;29;20086;-92
2022/04/25 01:47:06;;;;;;;3.47;2.10;;;;;;;17.49;54.15;99044.06;4970500;29;20027;-92
2022/04/25 01:49:36;;;;;;;3.60;2.30;;;;;;;17.48;54.09;99045.84;4970882;29;20026;-92
2022/04/25 01:52:08;;;;;;;3.28;2.00;;;;;;;17.48;54.08;99045.00;4970208;29;20050;-91
2022/04/25 01:54:34;;;;;;;3.60;2.00;;;;;;;17.50;54.42;99040.50;4969521;29;20539;-91
2022/04/25 01:57:01;;;;;;;2.60;1.77;;;;;;;17.50;54.16;99045.75;4970266;29;20035;-91
2022/04/25 01:59:27;;;;;;;3.10;2.05;;;;;;;17.48;54.29;99042.38;4970525;29;20027;-91
2022/04/25 02:01:52;;;;;;;3.15;1.80;;;;;;;17.47;54.18;99038.88;4971271;29;20033;-92
2022/04/25 02:04:19;;;;;;;3.55;2.20;;;;;;;17.45;54.16;99040.75;4969765;29;20027;-92
2022/04/25 02:06:45;;;;;;;2.72;1.92;;;;;;;17.45;54.02;99041.56;4970693;29;20031;-92
2022/04/25 02:09:11;;;;;;;3.05;1.92;;;;;;;17.45;54.09;99044.22;4970293;29;20034;-92
2022/04/25 02:11:36;;;;;;;4.13;2.47;;;;;;;17.44;53.98;99039.03;4971045;29;20463;-91
2022/04/25 02:14:02;;;;;;;3.40;2.20;;;;;;;17.45;54.07;99038.09;4971322;29;20106;-92
2022/04/25 02:16:28;;;;;;;3.17;2.22;;;;;;;17.44;54.26;99031.13;4971863;29;20019;-91
2022/04/25 02:18:54;;;;;;;3.20;2.00;;;;;;;17.44;54.20;99034.59;4971808;29;20095;-91
2022/04/25 02:21:20;;;;;;;3.47;2.03;;;;;;;17.47;54.24;99040.66;4973673;29;20046;-93
2022/04/25 02:23:46;;;;;;;3.33;1.95;;;;;;;17.41;54.04;99032.13;4971532;29;20412;-91
2022/04/25 02:26:12;;;;;;;4.03;2.63;;;;;;;17.43;53.95;99025.00;4971864;29;20094;-92
2022/04/25 02:28:39;;;;;;;2.92;1.80;;;;;;;17.40;54.15;99033.09;4971138;29;20034;-92
2022/04/25 02:31:07;;;;;;;3.28;1.80;;;;;;;17.40;54.22;99027.81;4971946;29;20027;-91
2022/04/25 02:33:33;;;;;;;3.60;2.08;;;;;;;17.41;53.99;99026.88;4972220;29;20023;-91
2022/04/25 02:36:00;;;;;;;3.50;2.03;;;;;;;17.40;54.09;99032.22;4971898;29;20058;-91
2022/04/25 02:38:26;;;;;;;3.85;2.30;;;;;;;17.40;54.12;99029.56;4972340;29;20028;-91
2022/04/25 02:41:04;;;;;;;2.80;1.80;;;;;;;17.40;54.01;99034.84;4971689;29;20029;-91
2022/04/25 02:43:34;;;;;;;3.63;2.25;;;;;;;17.39;54.08;99031.34;4972206;29;20491;-92
2022/04/25 02:46:01;;;;;;;3.67;2.40;;;;;;;17.38;53.99;99027.00;4971784;29;20066;-92
2022/04/25 02:48:26;;;;;;;3.08;1.92;;;;;;;17.39;54.02;99033.16;4970563;28;20034;-91
2022/04/25 02:50:52;;;;;;;3.28;2.10;;;;;;;17.37;53.96;99025.31;4974242;29;20027;-91
2022/04/25 02:53:18;;;;;;;3.83;2.03;;;;;;;17.36;53.97;99023.63;4970375;29;20031;-92
2022/04/25 02:55:43;;;;;;;3.75;2.17;;;;;;;17.35;53.90;99027.19;4969451;29;20076;-92
2022/04/25 02:58:09;;;;;;;4.20;2.15;;;;;;;17.34;53.99;99030.75;4968094;29;20050;-92
2022/04/25 03:00:35;;;;;;;3.70;2.10;;;;;;;17.34;53.88;99025.47;4969614;29;20027;-91
2022/04/25 03:03:01;;;;;;;2.40;1.70;;;;;;;17.32;54.00;99027.34;4968593;29;20147;-92
2022/04/25 03:05:27;;;;;;;3.67;2.15;;;;;;;17.32;53.84;99027.34;4968528;29;20035;-92
2022/04/25 03:07:53;;;;;;;3.45;2.10;;;;;;;17.30;53.93;99029.22;4967621;29;20031;-91
2022/04/25 03:10:18;;;;;;;2.65;1.77;;;;;;;17.30;53.84;99024.78;4968351;29;20027;-92
2022/04/25 03:12:44;;;;;;;3.13;2.00;;;;;;;17.29;53.94;99024.88;4969006;29;20053;-92
2022/04/25 03:15:09;;;;;;;3.17;2.00;;;;;;;17.30;54.02;99018.66;4968939;29;20027;-91
2022/04/25 03:17:35;;;;;;;3.83;2.38;;;;;;;17.29;54.06;99022.25;4968555;29;20027;-90
2022/04/25 03:20:01;;;;;;;2.72;1.67;;;;;;;17.27;53.94;99018.81;4952082;29;20058;-91
2022/04/25 03:22:29;;;;;;;3.75;2.17;;;;;;;17.25;54.09;99018.06;4969547;29;20019;-92
2022/04/25 03:24:55;;;;;;;3.20;2.00;;;;;;;17.25;53.97;99010.97;4969472;29;20054;-93
2022/04/25 03:27:20;;;;;;;3.17;1.98;;;;;;;17.26;53.98;99011.84;4969656;29;20034;-92
2022/04/25 03:29:46;;;;;;;2.78;1.77;;;;;;;17.26;53.90;99017.97;4968866;29;20027;-91
2022/04/25 03:32:11;;;;;;;4.55;1.80;;;;;;;17.26;54.07;99012.69;4968669;29;20492;-92
2022/04/25 03:34:37;;;;;;;2.90;2.00;;;;;;;17.25;53.68;99010.13;4969465;29;20342;-92
2022/04/25 03:37:03;;;;;;;2.55;1.88;;;;;;;17.25;53.98;99008.34;4968652;29;20031;-91
2022/04/25 03:39:29;;;;;;;3.47;2.03;;;;;;;17.24;53.98;99008.44;4968494;29;20457;-91
2022/04/25 03:41:55;;;;;;;2.40;1.73;;;;;;;17.22;53.97;98999.75;4952652;29;20074;-91
2022/04/25 03:44:21;;;;;;;3.67;1.85;;;;;;;17.23;53.86;99006.75;4968080;29;20043;-92
2022/04/25 03:46:47;;;;;;;3.60;2.10;;;;;;;17.22;54.01;99005.00;4968476;29;20079;-90
2022/04/25 03:49:14;;;;;;;3.95;2.03;;;;;;;17.22;54.12;99005.00;4968769;29;20035;-92
2022/04/25 03:51:41;;;;;;;3.00;1.77;;;;;;;17.23;54.03;99006.75;4968341;28;20039;-91
2022/04/25 03:54:06;;;;;;;2.83;1.90;;;;;;;17.20;53.89;99006.88;4968118;29;20031;-92
2022/04/25 03:59:16;;;;;;;3.55;1.88;;;;;;;17.19;53.89;99011.28;4970923;28;20540;-92
2022/04/25 04:01:42;;;;;;;2.72;1.80;;;;;;;17.22;53.89;99021.69;4968104;29;20031;-92
2022/04/25 04:04:07;;;;;;;3.83;2.25;;;;;;;17.18;53.73;99018.38;4968413;29;20034;-91
2022/04/25 04:06:35;;;;;;;2.78;1.75;;;;;;;17.18;53.82;99021.00;4967964;29;20065;-92
2022/04/25 04:09:44;;;;;;;4.47;2.25;;;;;;;17.18;53.95;99025.41;4967452;29;20188;-92
2022/04/25 04:11:46;;;;;;;3.25;1.83;;;;;;;17.16;53.96;99022.03;4968487;29;20027;-92
2022/04/25 04:14:12;;;;;;;2.92;1.85;;;;;;;17.16;53.95;99025.50;4967954;29;20023;-93
2022/04/25 04:16:37;;;;;;;2.88;1.98;;;;;;;17.15;53.98;99021.16;4967125;29;20023;-93
2022/04/25 04:19:05;;;;;;;3.22;2.00;;;;;;;17.16;53.98;99022.84;4968970;29;20472;-92
2022/04/25 04:21:30;;;;;;;4.10;1.92;;;;;;;17.15;53.97;99029.06;4968001;29;20023;-91
2022/04/25 04:23:59;;;;;;;4.40;2.13;;;;;;;17.15;53.91;99021.16;4968689;29;20042;-92
2022/04/25 04:26:24;;;;;;;3.33;2.15;;;;;;;17.15;53.99;99025.59;4969353;29;20345;-91
2022/04/25 04:28:50;;;;;;;2.55;1.80;;;;;;;17.13;53.93;99028.31;4972699;29;20023;-91
2022/04/25 04:31:15;;;;;;;3.17;2.00;;;;;;;17.14;53.91;99030.00;4968222;29;20086;-92
2022/04/25 04:33:41;;;;;;;4.13;2.22;;;;;;;17.11;54.19;99030.19;4970115;28;20027;-92
2022/04/25 04:36:19;;;;;;;3.35;2.08;;;;;;;17.10;53.95;99030.25;4970904;29;20038;-92
2022/04/25 04:38:45;;;;;;;4.20;2.05;;;;;;;17.13;54.08;99027.44;4972269;29;20035;-91
2022/04/25 04:41:12;;;;;;;3.80;2.30;;;;;;;17.12;53.84;99037.16;4971456;29;20086;-92
2022/04/25 04:43:37;;;;;;;3.30;2.20;;;;;;;17.11;54.08;99024.91;4971626;29;20114;-92
2022/04/25 04:46:03;;;;;;;3.78;2.35;;;;;;;17.09;54.01;99032.03;4972737;29;20054;-91
2022/04/25 04:48:28;;;;;;;2.92;1.90;;;;;;;17.08;54.05;99026.81;4971521;29;20046;-91
2022/04/25 04:50:56;;;;;;;2.70;1.77;;;;;;;17.08;53.97;99030.31;4954537;29;20070;-91
2022/04/25 04:53:22;;;;;;;3.00;1.88;;;;;;;17.09;53.95;99037.28;4970016;29;20122;-92
2022/04/25 04:55:49;;;;;;;4.32;3.08;;;;;;;17.08;54.31;99040.88;4969738;29;20121;-92
2022/04/25 04:58:14;;;;;;;3.10;1.92;;;;;;;17.08;54.17;99035.59;4969295;29;20130;-92
2022/04/25 05:00:44;;;;;;;3.72;2.05;;;;;;;17.07;54.00;99028.63;4970146;29;20059;-92
2022/04/25 05:03:15;;;;;;;3.33;1.90;;;;;;;17.08;54.15;99040.88;4969456;29;20031;-91
2022/04/25 05:05:41;;;;;;;3.78;2.25;;;;;;;17.08;54.12;99040.00;4970434;29;20094;-92
2022/04/25 05:08:06;;;;;;;3.42;2.33;;;;;;;17.06;54.16;99040.09;4971899;29;20030;-92
2022/04/25 05:10:32;;;;;;;4.25;2.30;;;;;;;17.06;53.89;99036.59;4971655;29;20027;-91
2022/04/25 05:12:58;;;;;;;3.33;2.17;;;;;;;17.06;54.17;99045.38;4974018;28;20035;-92
2022/04/25 05:15:24;;;;;;;4.10;2.35;;;;;;;17.02;54.02;99044.69;4976521;29;20066;-92
2022/04/25 05:17:53;;;;;;;3.85;2.22;;;;;;;17.02;54.27;99052.59;4976386;29;20038;-92
2022/04/25 05:20:20;;;;;;;3.78;2.22;;;;;;;17.03;54.22;99056.06;4976849;29;20038;-92
2022/04/25 05:22:48;;;;;;;3.38;1.98;;;;;;;17.04;54.21;99052.50;4977307;29;20027;-93
2022/04/25 05:25:15;;;;;;;3.42;2.10;;;;;;;17.05;54.24;99051.59;4976659;29;20095;-91
2022/04/25 05:27:42;;;;;;;3.83;1.88;;;;;;;17.03;54.13;99048.16;4971596;29;20063;-91
2022/04/25 05:30:09;;;;;;;2.85;2.00;;;;;;;17.02;54.15;99051.69;4970923;29;20031;-91
2022/04/25 05:32:48;;;;;;;3.90;2.47;;;;;;;17.02;54.32;99062.25;4972257;29;20350;-91
2022/04/25 05:35:18;;;;;;;3.47;2.30;;;;;;;17.03;54.17;99062.19;4972733;29;20046;-93
2022/04/25 05:37:45;;;;;;;3.33;2.20;;;;;;;17.03;54.27;99069.25;4970115;29;20031;-90
2022/04/25 05:40:12;;;;;;;3.63;2.15;;;;;;;17.02;53.94;99068.41;4970490;29;20373;-91
2022/04/25 05:42:40;;;;;;;4.15;2.25;;;;;;;17.01;53.99;99065.81;4971262;29;20062;-92
2022/04/25 05:45:07;;;;;;;4.63;2.33;;;;;;;17.02;54.26;99072.78;4970258;29;20043;-91
2022/04/25 05:47:33;;;;;;;5.80;2.30;;;;;;;17.00;54.14;99069.38;4970462;29;20046;-91
2022/04/25 05:52:45;;;;;;;3.30;2.17;;;;;;;17.02;54.16;99080.69;4972613;29;20070;-92
2022/04/25 05:55:11;;;;;;;5.45;2.60;;;;;;;17.00;54.28;99085.19;4969336;29;20028;-92
2022/04/25 05:57:37;;;;;;;3.15;2.20;;;;;;;17.00;54.41;99082.56;4970235;29;20129;-92
2022/04/25 06:00:05;;;;;;;4.20;2.47;;;;;;;16.97;54.24;99083.56;4969908;29;20031;-91
2022/04/25 06:02:31;;;;;;;4.30;2.60;;;;;;;17.00;54.13;99079.91;4970141;29;20028;-92
2022/04/25 06:04:57;;;;;;;3.47;2.30;;;;;;;16.99;54.27;99080.81;4971656;29;20055;-91
2022/04/25 06:07:22;;;;;;;3.67;2.15;;;;;;;16.99;54.22;99080.81;4971922;29;20535;-92
2022/04/25 06:09:48;;;;;;;5.72;2.38;;;;;;;16.96;54.44;99081.88;4968948;29;20035;-92
2022/04/25 06:12:13;;;;;;;4.15;2.33;;;;;;;16.98;54.24;99092.31;4969239;29;20127;-92
2022/04/25 06:14:40;;;;;;;4.35;2.85;;;;;;;16.99;54.20;99091.38;4970125;29;20074;-91
2022/04/25 06:17:06;;;;;;;3.30;2.30;;;;;;;16.98;54.22;99092.31;4969352;29;20038;-92
2022/04/25 06:19:32;;;;;;;4.43;2.53;;;;;;;16.97;54.34;99090.59;4969783;29;20075;-92
2022/04/25 06:21:58;;;;;;;5.18;2.67;;;;;;;16.98;54.21;99089.66;4968993;29;20045;-91
2022/04/25 06:24:23;;;;;;;4.25;2.72;;;;;;;16.98;54.45;99092.31;4969125;28;20159;-91
2022/04/25 06:26:49;;;;;;;4.20;2.38;;;;;;;16.97;54.34;99095.88;4969059;29;20093;-91
2022/04/25 06:29:18;;;;;;;5.28;2.72;;;;;;;16.96;54.34;99099.44;4968245;29;20042;-91
2022/04/25 06:31:43;;;;;;;4.22;2.30;;;;;;;16.96;54.44;99096.81;4969081;29;20031;-91
2022/04/25 06:34:09;;;;;;;4.10;2.75;;;;;;;16.95;54.46;99103.03;4969391;29;20027;-92
2022/04/25 06:36:36;;;;;;;4.07;2.65;;;;;;;16.95;54.41;99101.22;4969603;29;20516;-91
2022/04/25 06:39:02;;;;;;;3.92;2.50;;;;;;;16.96;54.34;99094.19;4969334;29;20027;-91
2022/04/25 06:41:30;;;;;;;4.03;2.28;;;;;;;16.97;54.30;99098.50;4969421;29;20027;-91
2022/04/25 06:43:58;;;;;;;5.75;2.95;;;;;;;16.96;54.39;99099.44;4971547;28;20468;-92
2022/04/25 06:46:25;;;;;;;3.58;2.50;;;;;;;16.96;54.47;99097.69;4972001;28;20420;-91
2022/04/25 06:51:35;;;;;;;4.22;2.17;;;;;;;16.95;54.32;99098.59;4990087;28;20070;-92
2022/04/25 06:54:00;;;;;;;3.40;2.15;;;;;;;16.95;54.56;99103.03;4971910;28;20027;-90
2022/04/25 06:56:26;;;;;;;5.25;2.83;;;;;;;16.95;54.57;99103.03;4972741;28;20027;-92
2022/04/25 06:58:52;;;;;;;3.67;2.30;;;;;;;16.96;54.24;99102.94;4972153;28;20031;-93
2022/04/25 07:01:33;;;;;;;4.18;2.40;;;;;;;16.94;54.55;99102.16;4971069;28;20050;-92
2022/04/25 07:03:59;;;;;;;4.90;2.45;;;;;;;16.95;54.48;99098.59;4971933;28;20026;-92
2022/04/25 07:06:27;;;;;;;4.70;2.65;;;;;;;16.95;54.67;99108.28;4971483;28;20444;-92
2022/04/25 07:08:52;;;;;;;4.00;2.25;;;;;;;16.96;54.41;99102.09;4971864;28;20066;-92
2022/04/25 07:11:18;;;;;;;4.20;2.08;;;;;;;16.94;54.73;99107.41;4972798;28;20034;-92
2022/04/25 07:13:45;;;;;;;4.55;2.47;;;;;;;16.96;54.56;99110.00;4972008;28;20034;-92
2022/04/25 07:16:14;;;;;;;3.90;2.40;;;;;;;16.96;54.71;99102.94;4972927;28;20054;-92
2022/04/25 07:18:41;;;;;;;5.63;2.78;;;;;;;16.97;54.40;99106.41;4972290;28;20026;-91
2022/04/25 07:29:20;;;;;;;4.75;2.38;;;;;;;17.01;54.50;99097.44;4989690;28;20041;-93
2022/04/25 07:31:47;;;;;;;4.28;2.42;;;;;;;17.00;54.71;99098.38;4973831;28;20500;-92
2022/04/25 07:34:12;;;;;;;3.85;2.30;;;;;;;17.04;54.45;99107.84;4974147;28;20098;-93
2022/04/25 07:36:38;;;;;;;3.40;2.25;;;;;;;17.05;54.18;99101.66;4973659;28;20026;-92
2022/04/25 07:39:04;;;;;;;3.63;2.03;;;;;;;17.08;54.22;99106.78;4974477;28;20030;-93
2022/04/25 07:41:30;;;;;;;4.68;2.10;;;;;;;17.08;54.35;99111.19;4975187;28;20070;-93
2022/04/25 07:43:56;;;;;;;4.47;2.47;;;;;;;17.08;54.08;99106.78;4976802;28;20027;-92
2022/04/25 07:46:26;;;;;;;3.72;2.30;;;;;;;17.10;54.61;99102.25;4975069;28;20022;-92
2022/04/25 07:48:52;;;;;;;4.38;2.35;;;;;;;17.11;54.52;99104.00;4975319;28;20018;-93
2022/04/25 07:51:18;;;;;;;4.10;2.47;;;;;;;17.11;54.42;99104.00;4975744;28;20031;-93
2022/04/25 07:53:44;;;;;;;5.40;2.50;;;;;;;17.12;54.53;99108.31;4976663;28;20061;-92
2022/04/25 07:56:10;;;;;;;4.78;2.53;;;;;;;17.13;54.39;99107.41;4975192;28;20093;-92
2022/04/25 07:58:37;;;;;;;3.70;2.22;;;;;;;17.15;54.13;99110.78;4971952;28;20034;-92
2022/04/25 08:01:04;;;;;;;3.63;2.45;;;;;;;17.17;54.39;99114.22;4971689;28;20026;-91
2022/04/25 08:03:29;;;;;;;4.40;2.78;;;;;;;17.18;54.43;99118.56;4971010;28;20061;-93
2022/04/25 08:05:55;;;;;;;4.38;2.67;;;;;;;17.18;54.11;99120.34;4971007;28;20030;-91
2022/04/25 08:08:21;;;;;;;5.20;2.90;;;;;;;17.22;54.21;99118.41;4970963;28;20388;-91
2022/04/25 08:10:47;;;;;;;5.75;2.80;;;;;;;17.23;54.36;99122.75;4956231;28;20047;-91
2022/04/25 08:18:41;;;;;;;3.10;2.10;;;;;;;17.26;54.44;99134.00;4988755;28;20044;-92
2022/04/25 08:21:07;;;;;;;4.15;2.58;;;;;;;17.27;54.13;99134.84;4972189;28;20030;-92
2022/04/25 08:23:33;;;;;;;5.38;2.70;;;;;;;17.28;54.37;99136.53;4971798;28;20035;-91
2022/04/25 08:25:59;;;;;;;4.93;2.88;;;;;;;17.29;54.24;99138.28;4971136;28;20094;-92
2022/04/25 08:28:25;;;;;;;4.40;2.35;;;;;;;17.29;54.19;99138.28;4972526;28;20054;-92
2022/04/25 08:30:52;;;;;;;4.15;2.42;;;;;;;17.30;54.28;99146.09;4972262;28;20058;-93
2022/04/25 08:33:19;;;;;;;5.30;2.85;;;;;;;17.30;53.99;99150.53;4972172;28;20023;-92
2022/04/25 08:35:46;;;;;;;3.85;2.40;;;;;;;17.30;53.94;99143.44;4972113;28;20125;-92
2022/04/25 08:38:11;;;;;;;4.40;2.70;;;;;;;17.30;53.93;99145.25;4972685;28;20037;-91
2022/04/25 08:40:42;;;;;;;4.30;2.47;;;;;;;17.32;53.99;99143.38;4972538;28;20461;-92
2022/04/25 08:43:09;;;;;;;4.20;2.35;;;;;;;17.35;54.11;99143.22;4971966;28;20031;-92
2022/04/25 08:45:37;;;;;;;4.60;2.40;;;;;;;17.35;53.89;99137.09;4969025;29;20048;-92
2022/04/25 08:48:17;;;;;;;3.88;2.47;;;;;;;17.36;54.01;99138.78;4974819;29;20086;-93
2022/04/25 08:50:51;;;;;;;4.57;2.33;;;;;;;17.38;53.86;99137.78;4979857;29;20015;-93
2022/04/25 08:53:27;;;;;;;4.80;2.60;;;;;;;17.41;54.10;99140.28;4982326;28;20035;-93
2022/04/25 08:56:04;;;;;;;3.83;2.63;;;;;;;17.43;53.63;99145.47;4981337;28;20038;-90
2022/04/25 08:58:41;;;;;;;5.22;2.50;;;;;;;17.44;53.67;99148.03;4982419;28;20059;-94
2022/04/25 09:01:12;;;;;;;4.60;2.83;;;;;;;17.47;53.79;99140.91;4983083;28;20027;-93
2022/04/25 09:03:40;;;;;;;3.60;2.42;;;;;;;17.48;53.56;99140.81;4977650;28;20071;-91
2022/04/25 09:06:06;;;;;;;4.55;2.35;;;;;;;17.51;53.78;99148.56;4970780;29;20031;-90
2022/04/25 09:08:32;;;;;;;5.22;2.70;;;;;;;17.52;53.50;99144.13;4977350;28;20094;-91
2022/04/25 09:13:49;;;;;;;6.60;2.78;;;;;;;17.54;53.45;99147.56;4982909;28;20042;-93
2022/04/25 09:16:28;;;;;;;4.78;2.40;;;;;;;17.57;53.45;99152.66;4965328;28;20035;-92
2022/04/25 09:18:56;;;;;;;5.45;3.30;;;;;;;17.58;53.51;99146.47;4980897;28;20020;-90
2022/04/25 09:21:49;;;;;;;4.10;2.70;;;;;;;17.59;53.34;99145.53;4970400;28;20111;-92
2022/04/25 09:46:25;;;;;;;4.22;2.63;;;;;;;17.71;53.22;99150.19;4978950;29;20095;-95
2022/04/25 09:49:28;;;;;;;5.40;2.88;;;;;;;17.71;52.98;99150.19;4963695;29;20050;-90
2022/04/25 10:04:38;;;;;;;4.85;2.67;;;;;;;17.78;52.76;99149.84;4997700;28;20049;-94
2022/04/25 10:17:08;;;;;;;4.15;2.50;;;;;;;17.81;53.04;99149.69;5001262;28;20058;-93
2022/04/25 10:19:34;;;;;;;6.03;2.72;;;;;;;17.82;53.39;99148.78;4975090;28;20070;-91
2022/04/25 10:22:12;;;;;;;4.40;2.63;;;;;;;17.82;52.98;99152.25;4969115;28;20065;-91
2022/04/25 10:24:47;;;;;;;4.78;2.22;;;;;;;17.83;52.69;99153.13;4973431;28;20033;-94
2022/04/25 10:27:37;;;;;;;5.65;2.60;;;;;;;17.86;52.87;99152.94;4984109;28;20014;-94
2022/04/25 10:30:17;;;;;;;5.55;2.70;;;;;;;17.85;52.82;99152.09;5001228;28;20090;-94
2022/04/25 10:32:47;;;;;;;4.82;2.60;;;;;;;17.85;52.95;99140.69;4984313;28;20019;-94
2022/04/25 10:35:36;;;;;;;4.72;2.60;;;;;;;17.88;53.06;99153.72;4975808;28;20030;-93
2022/04/25 10:38:53;;;;;;;5.78;2.80;;;;;;;17.89;52.79;99151.91;4973846;28;20070;-92
2022/04/25 10:45:01;;;;;;;5.47;2.95;;;;;;;17.92;52.51;99149.97;5001167;28;20048;-92
2022/04/25 10:47:57;;;;;;;5.32;3.08;;;;;;;17.93;52.73;99156.94;4952468;28;20030;-93
2022/04/25 10:50:26;;;;;;;5.30;2.80;;;;;;;17.96;52.80;99154.16;4977870;28;20058;-92
2022/04/25 10:52:54;;;;;;;8.68;3.53;;;;;;;17.96;52.69;99159.44;4977746;28;20105;-92
2022/04/25 10:58:04;;;;;;;5.70;3.30;;;;;;;18.00;52.63;99146.09;4994451;28;20042;-92
2022/04/25 11:03:05;;;;;;;4.95;3.00;;;;;;;18.02;52.62;99144.22;4992880;28;20034;-92
2022/04/25 11:05:34;;;;;;;6.85;3.20;;;;;;;18.03;52.50;99149.41;4976680;28;20103;-92
2022/04/25 11:08:15;;;;;;;6.82;3.53;;;;;;;18.05;52.35;99144.03;4977975;28;20070;-92
2022/04/25 11:10:47;;;;;;;4.65;2.92;;;;;;;18.07;52.52;99145.69;4988127;28;20031;-92
2022/04/25 11:13:19;;;;;;;5.57;2.97;;;;;;;18.09;52.59;99148.25;4990126;28;20050;-91
2022/04/25 11:15:50;;;;;;;5.40;3.33;;;;;;;18.10;52.39;99150.81;4992173;28;20054;-93
2022/04/25 11:18:38;;;;;;;4.95;3.20;;;;;;;18.13;52.17;99148.94;4990831;28;20376;-93
2022/04/25 11:21:19;;;;;;;4.53;2.90;;;;;;;18.14;52.67;99140.94;4994951;28;20114;-94
2022/04/25 11:23:52;;;;;;;7.97;3.47;;;;;;;18.17;52.45;99145.19;4990405;28;20063;-94
2022/04/25 11:26:23;;;;;;;5.85;3.13;;;;;;;18.17;52.62;99146.06;5011484;28;20039;-93
2022/04/25 11:28:55;;;;;;;5.38;3.17;;;;;;;18.19;52.71;99146.81;4997692;28;20026;-93
2022/04/25 11:31:23;;;;;;;5.53;3.20;;;;;;;18.21;52.52;99152.88;4996218;28;20033;-91
2022/04/25 11:33:53;;;;;;;5.38;3.13;;;;;;;18.21;52.51;99147.59;4999296;28;20031;-94
2022/04/25 11:36:31;;;;;;;5.55;3.00;;;;;;;18.23;52.70;99144.88;4998771;28;20057;-89
2022/04/25 11:41:50;;;;;;;6.43;3.28;;;;;;;18.29;52.58;99147.16;4999032;28;20074;-90
2022/04/25 11:44:16;;;;;;;5.78;3.75;;;;;;;18.29;52.37;99143.66;4989560;28;20463;-92
2022/04/25 11:46:42;;;;;;;7.90;4.38;;;;;;;18.31;52.53;99139.16;4984276;28;20029;-90
2022/04/25 11:49:09;;;;;;;8.25;4.93;;;;;;;18.32;51.94;99138.22;4983503;28;20467;-93
2022/04/25 11:51:39;;;;;;;7.45;4.70;;;;;;;18.34;52.53;99131.06;4971772;28;20052;-92
2022/04/25 11:54:08;;;;;;;8.48;5.53;;;;;;;18.36;52.39;99129.22;4989698;28;20034;-92
2022/04/25 11:56:35;;;;;;;8.00;5.07;;;;;;;18.38;52.73;99127.31;4990210;28;20042;-92
2022/04/25 11:59:07;;;;;;;8.48;5.25;;;;;;;18.38;52.53;99128.19;4988709;28;20089;-92
2022/04/25 12:01:41;;;;;;;10.18;6.32;;;;;;;18.40;52.35;99125.44;4988590;28;20031;-92
2022/04/25 12:04:33;;;;;;;9.05;5.32;;;;;;;18.43;52.30;99125.28;4991896;28;20457;-92
2022/04/25 12:07:10;;;;;;;9.30;5.78;;;;;;;18.43;52.32;99114.72;4987585;28;20042;-91
2022/04/25 12:15:35;;;;;;;11.48;6.32;;;;;;;18.50;52.16;99126.63;4981048;28;20476;-91
2022/04/25 12:18:17;;;;;;;;;;;;;;;18.50;52.14;99121.34;4984457;28;20030;-91
2022/04/25 12:21:13;;;;;;;9.05;6.00;;;;;;;18.52;52.17;99119.50;4991856;28;19910;-91
2022/04/25 12:23:59;;;;;;;10.32;6.00;;;;;;;18.55;52.21;99117.59;4982765;28;20023;-92
2022/04/25 12:26:31;;;;;;;8.70;6.13;;;;;;;18.57;52.30;99110.44;5000071;28;20078;-92
2022/04/25 12:29:01;;;;;;;8.90;6.15;;;;;;;18.58;52.11;99109.50;5000150;28;20046;-92
2022/04/25 12:31:30;;;;;;;12.93;6.30;;;;;;;18.60;52.59;99115.56;4997061;28;20046;-92
2022/04/25 12:34:04;;;;;;;10.32;6.38;;;;;;;18.61;52.37;99107.56;4984040;28;20031;-92
2022/04/25 12:36:29;;;;;;;8.68;5.97;;;;;;;18.62;52.54;99113.69;5004156;28;20015;-90
2022/04/25 12:42:06;;;;;;;11.05;6.00;;;;;;;18.67;52.42;99111.63;5003288;28;20073;-92
2022/04/25 12:44:35;;;;;;;9.93;6.13;;;;;;;18.68;52.24;99102.75;5005451;28;20023;-93
2022/04/25 12:47:10;;;;;;;10.20;6.18;;;;;;;18.70;52.26;99106.16;4999481;28;20034;-93
2022/04/25 12:50:04;;;;;;;9.25;6.10;;;;;;;18.72;52.34;99103.44;5001002;28;20126;-94
2022/04/25 12:52:51;;;;;;;9.18;6.35;;;;;;;18.73;52.61;99103.34;5003222;28;20082;-92
2022/04/25 12:55:50;;;;;;;13.85;6.85;;;;;;;18.76;52.14;99099.69;4988242;28;20110;-94
2022/04/25 12:58:17;;;;;;;11.68;6.28;;;;;;;18.76;52.53;99097.91;5003772;28;20018;-93
2022/04/25 13:00:49;;;;;;;13.65;7.18;;;;;;;18.77;52.66;99096.97;5004368;28;20038;-94
2022/04/25 13:06:23;;;;;;;11.05;6.88;;;;;;;18.82;52.76;99098.47;5549792;23;20042;-93
2022/04/25 13:08:52;;;;;;;10.57;6.47;;;;;;;18.84;52.62;99100.06;5005895;28;20056;-91
2022/04/25 13:11:18;;;;;;;10.48;7.07;;;;;;;18.85;52.61;99100.94;4994235;28;20019;-92
2022/04/25 13:13:51;;;;;;;10.38;6.15;;;;;;;18.87;52.47;99102.56;5004856;28;20491;-93
2022/04/25 13:16:19;;;;;;;9.52;7.07;;;;;;;18.89;52.39;99099.84;5004957;28;20034;-92
2022/04/25 13:18:48;;;;;;;12.45;6.72;;;;;;;18.91;52.80;99097.94;5003813;28;20040;-93